createdAt,value
2017-10-14T00:00:19.859Z,88.58
2017-10-14T00:01:30.331Z,88.58
2017-10-14T00:02:40.490Z,88.58
2017-10-14T00:03:50.961Z,88.48
2017-10-14T00:05:01.650Z,88.68
2017-10-14T00:06:12.120Z,88.58
2017-10-14T00:07:22.584Z,88.96
2017-10-14T00:08:33.122Z,89.15
2017-10-14T00:09:43.609Z,89.15
2017-10-14T00:10:54.111Z,89.15
2017-10-14T00:12:04.138Z,89.15
2017-10-14T00:13:15.275Z,89.06
2017-10-14T00:14:25.728Z,88.96
2017-10-14T00:15:36.193Z,88.96
2017-10-14T00:16:46.694Z,89.06
2017-10-14T00:17:57.179Z,88.96
2017-10-14T00:19:07.738Z,88.96
2017-10-14T00:20:17.869Z,88.96
2017-10-14T00:21:28.353Z,89.15
2017-10-14T00:22:38.797Z,89.15
2017-10-14T00:23:49.395Z,89.06
2017-10-14T00:24:59.871Z,88.58
2017-10-14T00:26:09.581Z,88.87
2017-10-14T00:27:20.079Z,89.15
2017-10-14T00:28:30.521Z,89.15
2017-10-14T00:29:41.024Z,88.77
2017-10-14T00:30:51.744Z,88.58
2017-10-14T00:32:02.244Z,88.68
2017-10-14T00:33:12.748Z,88.58
2017-10-14T00:34:23.290Z,88.87
2017-10-14T00:35:33.783Z,88.87
2017-10-14T00:36:44.225Z,89.06
2017-10-14T00:37:54.704Z,88.96
2017-10-14T00:39:05.214Z,89.06
2017-10-14T00:40:15.818Z,89.15
2017-10-14T00:41:27.268Z,89.34
2017-10-14T00:42:38.087Z,88.96
2017-10-14T00:43:48.573Z,88.96
2017-10-14T00:44:59.075Z,89.44
2017-10-14T00:46:09.762Z,89.44
2017-10-14T00:47:19.991Z,89.25
2017-10-14T00:48:30.459Z,89.44
2017-10-14T00:49:40.997Z,89.44
2017-10-14T00:50:51.129Z,89.34
2017-10-14T00:52:01.673Z,89.82
2017-10-14T00:53:12.214Z,89.73
2017-10-14T00:54:22.652Z,89.82
2017-10-14T00:55:33.159Z,89.73
2017-10-14T00:56:43.643Z,89.73
2017-10-14T00:57:54.121Z,89.44
2017-10-14T00:59:04.596Z,89.53
2017-10-14T01:00:15.061Z,89.44
2017-10-14T01:01:25.529Z,89.34
2017-10-14T01:02:36.002Z,89.44
2017-10-14T01:03:46.529Z,90.11
2017-10-14T01:04:56.679Z,89.73
2017-10-14T01:06:06.820Z,90.01
2017-10-14T01:07:17.296Z,90.01
2017-10-14T01:08:27.326Z,89.63
2017-10-14T01:09:37.884Z,90.11
2017-10-14T01:10:48.354Z,90.11
2017-10-14T01:11:58.834Z,89.82
2017-10-14T01:13:09.544Z,90.01
2017-10-14T01:14:20.005Z,90.01
2017-10-14T01:15:30.485Z,90.01
2017-10-14T01:16:40.983Z,90.11
2017-10-14T01:17:51.464Z,90.11
2017-10-14T01:19:01.963Z,90.49
2017-10-14T01:20:12.451Z,90.2
2017-10-14T01:21:22.995Z,90.68
2017-10-14T01:22:33.457Z,90.59
2017-10-14T01:23:43.937Z,90.59
2017-10-14T01:24:54.451Z,90.59
2017-10-14T01:26:04.600Z,90.49
2017-10-14T01:27:15.079Z,90.49
2017-10-14T01:28:25.565Z,90.49
2017-10-14T01:29:36.040Z,90.49
2017-10-14T01:30:45.742Z,90.59
2017-10-14T01:31:56.212Z,90.59
2017-10-14T01:33:06.680Z,90.59
2017-10-14T01:34:17.156Z,90.49
2017-10-14T01:35:27.631Z,90.59
2017-10-14T01:36:37.777Z,90.39
2017-10-14T01:37:48.301Z,90.49
2017-10-14T01:38:58.746Z,90.3
2017-10-14T01:40:09.212Z,90.39
2017-10-14T01:41:19.670Z,90.3
2017-10-14T01:42:30.187Z,90.97
2017-10-14T01:43:40.682Z,90.68
2017-10-14T01:44:51.389Z,90.78
2017-10-14T01:46:01.558Z,90.49
2017-10-14T01:47:12.085Z,90.49
2017-10-14T01:48:22.568Z,90.49
2017-10-14T01:49:33.173Z,90.59
2017-10-14T01:50:43.655Z,90.88
2017-10-14T01:51:54.129Z,90.59
2017-10-14T01:53:04.264Z,90.88
2017-10-14T01:54:14.709Z,90.39
2017-10-14T01:55:25.185Z,90.39
2017-10-14T01:56:35.768Z,90.49
2017-10-14T01:57:46.224Z,90.97
2017-10-14T01:58:56.698Z,90.97
2017-10-14T02:00:06.845Z,90.68
2017-10-14T02:01:17.400Z,90.97
2017-10-14T02:02:27.861Z,90.97
2017-10-14T02:03:38.363Z,90.68
2017-10-14T02:04:48.849Z,91.35
2017-10-14T02:05:59.309Z,91.06
2017-10-14T02:07:09.793Z,91.25
2017-10-14T02:08:20.283Z,91.16
2017-10-14T02:09:30.805Z,91.54
2017-10-14T02:10:41.248Z,91.54
2017-10-14T02:11:51.764Z,91.45
2017-10-14T02:13:02.244Z,91.35
2017-10-14T02:14:12.715Z,91.45
2017-10-14T02:15:23.163Z,91.54
2017-10-14T02:16:33.069Z,91.16
2017-10-14T02:17:43.614Z,91.25
2017-10-14T02:18:54.092Z,91.25
2017-10-14T02:20:04.577Z,91.25
2017-10-14T02:21:15.043Z,91.25
2017-10-14T02:22:25.509Z,91.25
2017-10-14T02:23:35.958Z,91.25
2017-10-14T02:24:46.439Z,91.25
2017-10-14T02:25:56.574Z,91.35
2017-10-14T02:27:07.138Z,91.25
2017-10-14T02:28:17.545Z,91.25
2017-10-14T02:29:28.005Z,91.25
2017-10-14T02:30:38.477Z,91.25
2017-10-14T02:31:48.948Z,91.25
2017-10-14T02:32:58.790Z,91.83
2017-10-14T02:34:09.276Z,91.16
2017-10-14T02:35:19.729Z,91.25
2017-10-14T02:36:30.183Z,91.83
2017-10-14T02:37:40.626Z,91.83
2017-10-14T02:38:51.113Z,91.35
2017-10-14T02:40:01.230Z,92.02
2017-10-14T02:41:11.785Z,91.74
2017-10-14T02:42:22.233Z,91.74
2017-10-14T02:43:32.693Z,91.88
2017-10-14T02:44:43.170Z,91.74
2017-10-14T02:45:53.670Z,91.78
2017-10-14T02:47:03.804Z,91.64
2017-10-14T02:48:14.264Z,91.74
2017-10-14T02:49:24.725Z,91.59
2017-10-14T02:50:35.169Z,91.88
2017-10-14T02:51:45.928Z,91.78
2017-10-14T02:52:56.476Z,91.64
2017-10-14T02:54:07.040Z,91.83
2017-10-14T02:55:17.149Z,91.54
2017-10-14T02:56:27.640Z,91.45
2017-10-14T02:57:38.109Z,91.68
2017-10-14T02:58:48.589Z,91.74
2017-10-14T02:59:59.112Z,91.49
2017-10-14T03:01:09.278Z,91.78
2017-10-14T03:02:19.723Z,91.68
2017-10-14T03:03:29.561Z,91.68
2017-10-14T03:04:40.028Z,91.68
2017-10-14T03:05:50.535Z,91.49
2017-10-14T03:07:00.713Z,91.83
2017-10-14T03:08:11.176Z,91.74
2017-10-14T03:09:21.620Z,91.64
2017-10-14T03:10:32.178Z,92.21
2017-10-14T03:11:42.647Z,92.25
2017-10-14T03:12:53.101Z,92.07
2017-10-14T03:14:03.548Z,91.97
2017-10-14T03:15:14.079Z,92.07
2017-10-14T03:16:24.516Z,92.25
2017-10-14T03:17:34.994Z,92.3
2017-10-14T03:18:45.426Z,92.07
2017-10-14T03:19:55.909Z,92.16
2017-10-14T03:21:06.367Z,92.45
2017-10-14T03:22:16.825Z,92.45
2017-10-14T03:23:27.265Z,92.54
2017-10-14T03:24:37.701Z,92.16
2017-10-14T03:25:48.241Z,92.25
2017-10-14T03:26:58.389Z,92.25
2017-10-14T03:28:08.867Z,92.35
2017-10-14T03:29:19.301Z,92.16
2017-10-14T03:30:30.108Z,92.25
2017-10-14T03:31:40.256Z,92.07
2017-10-14T03:32:50.722Z,92.25
2017-10-14T03:34:01.173Z,92.35
2017-10-14T03:35:11.294Z,92.83
2017-10-14T03:36:21.820Z,92.83
2017-10-14T03:37:31.931Z,92.35
2017-10-14T03:38:42.380Z,92.35
2017-10-14T03:39:52.845Z,92.93
2017-10-14T03:41:03.304Z,92.83
2017-10-14T03:42:13.755Z,92.93
2017-10-14T03:43:24.221Z,92.93
2017-10-14T03:44:34.681Z,92.83
2017-10-14T03:45:45.328Z,92.74
2017-10-14T03:46:55.790Z,92.35
2017-10-14T03:48:06.294Z,92.45
2017-10-14T03:49:16.734Z,92.54
2017-10-14T03:50:27.176Z,92.54
2017-10-14T03:51:37.707Z,92.54
2017-10-14T03:52:48.211Z,92.54
2017-10-14T03:53:58.645Z,93.12
2017-10-14T03:55:09.169Z,93.12
2017-10-14T03:56:19.327Z,93.02
2017-10-14T03:57:29.749Z,92.64
2017-10-14T03:58:40.223Z,92.93
2017-10-14T03:59:50.663Z,92.93
2017-10-14T04:01:01.186Z,92.83
2017-10-14T04:02:11.664Z,93.12
2017-10-14T04:03:22.223Z,93.12
2017-10-14T04:04:32.428Z,93.31
2017-10-14T04:05:43.216Z,93.02
2017-10-14T04:06:53.662Z,93.12
2017-10-14T04:08:04.135Z,92.93
2017-10-14T04:09:14.634Z,93.4
2017-10-14T04:10:25.236Z,93.4
2017-10-14T04:11:35.705Z,93.4
2017-10-14T04:12:46.171Z,93.4
2017-10-14T04:13:56.784Z,93.4
2017-10-14T04:15:07.230Z,93.21
2017-10-14T04:16:17.741Z,93.4
2017-10-14T04:17:28.198Z,93.21
2017-10-14T04:18:38.680Z,93.4
2017-10-14T04:19:49.172Z,93.21
2017-10-14T04:20:59.627Z,93.31
2017-10-14T04:22:10.075Z,93.21
2017-10-14T04:23:20.534Z,93.02
2017-10-14T04:24:30.999Z,93.31
2017-10-14T04:25:41.457Z,93.31
2017-10-14T04:26:51.943Z,93.21
2017-10-14T04:28:02.411Z,93.31
2017-10-14T04:29:12.544Z,93.31
2017-10-14T04:30:23.026Z,93.12
2017-10-14T04:31:33.149Z,93.12
2017-10-14T04:32:43.802Z,93.12
2017-10-14T04:33:54.451Z,92.83
2017-10-14T04:35:04.896Z,93.21
2017-10-14T04:36:15.391Z,92.83
2017-10-14T04:37:25.850Z,93.4
2017-10-14T04:38:36.315Z,93.4
2017-10-14T04:39:46.856Z,93.6
2017-10-14T04:40:57.355Z,93.98
2017-10-14T04:42:07.797Z,93.88
2017-10-14T04:43:18.247Z,93.88
2017-10-14T04:44:28.258Z,93.79
2017-10-14T04:45:38.379Z,93.79
2017-10-14T04:46:48.891Z,93.6
2017-10-14T04:47:59.331Z,93.69
2017-10-14T04:49:09.834Z,93.6
2017-10-14T04:50:20.296Z,93.6
2017-10-14T04:51:30.765Z,93.69
2017-10-14T04:52:41.204Z,93.5
2017-10-14T04:53:51.668Z,93.6
2017-10-14T04:55:02.106Z,93.79
2017-10-14T04:56:12.284Z,93.88
2017-10-14T04:57:22.456Z,93.98
2017-10-14T04:58:33.012Z,93.79
2017-10-14T04:59:43.510Z,93.88
2017-10-14T05:00:54.025Z,93.74
2017-10-14T05:02:04.594Z,93.6
2017-10-14T05:03:15.062Z,93.79
2017-10-14T05:04:25.612Z,93.6
2017-10-14T05:05:36.055Z,93.84
2017-10-14T05:06:46.622Z,93.74
2017-10-14T05:07:57.060Z,93.6
2017-10-14T05:09:07.531Z,93.4
2017-10-14T05:10:17.997Z,93.6
2017-10-14T05:11:28.430Z,93.64
2017-10-14T05:12:38.895Z,94.5
2017-10-14T05:13:49.362Z,94.5
2017-10-14T05:14:59.828Z,94.21
2017-10-14T05:16:10.279Z,94.12
2017-10-14T05:17:20.752Z,93.93
2017-10-14T05:18:31.240Z,94.21
2017-10-14T05:19:41.706Z,94.21
2017-10-14T05:20:52.161Z,94.31
2017-10-14T05:22:02.618Z,94.12
2017-10-14T05:23:13.065Z,94.12
2017-10-14T05:24:23.550Z,94.12
2017-10-14T05:25:33.596Z,94.12
2017-10-14T05:26:43.714Z,94.21
2017-10-14T05:27:54.181Z,94.02
2017-10-14T05:29:04.303Z,94.02
2017-10-14T05:30:14.897Z,93.64
2017-10-14T05:31:25.349Z,94.12
2017-10-14T05:32:35.884Z,94.02
2017-10-14T05:33:46.338Z,94.31
2017-10-14T05:34:56.469Z,94.21
2017-10-14T05:36:07.024Z,94.02
2017-10-14T05:37:17.473Z,93.93
2017-10-14T05:38:27.946Z,93.93
2017-10-14T05:39:37.965Z,94.12
2017-10-14T05:40:48.009Z,94.21
2017-10-14T05:41:58.574Z,94.41
2017-10-14T05:43:09.063Z,94.31
2017-10-14T05:44:19.533Z,94.12
2017-10-14T05:45:29.970Z,94.31
2017-10-14T05:46:40.469Z,94.6
2017-10-14T05:47:51.159Z,94.7
2017-10-14T05:49:01.595Z,94.89
2017-10-14T05:50:12.102Z,94.7
2017-10-14T05:51:22.547Z,94.79
2017-10-14T05:52:32.758Z,94.7
2017-10-14T05:53:43.238Z,94.79
2017-10-14T05:54:53.738Z,94.98
2017-10-14T05:56:04.200Z,94.79
2017-10-14T05:57:14.664Z,94.79
2017-10-14T05:58:25.179Z,94.6
2017-10-14T05:59:35.327Z,95.07
2017-10-14T06:00:45.820Z,94.5
2017-10-14T06:01:56.370Z,95.07
2017-10-14T06:03:06.941Z,94.6
2017-10-14T06:04:17.383Z,94.5
2017-10-14T06:05:27.932Z,94.7
2017-10-14T06:06:38.406Z,94.5
2017-10-14T06:07:48.566Z,94.6
2017-10-14T06:08:59.050Z,94.5
2017-10-14T06:10:09.075Z,94.5
2017-10-14T06:11:19.539Z,94.41
2017-10-14T06:12:29.986Z,94.5
2017-10-14T06:13:40.175Z,94.6
2017-10-14T06:14:50.643Z,94.6
2017-10-14T06:16:01.086Z,94.6
2017-10-14T06:17:11.588Z,94.65
2017-10-14T06:18:22.049Z,94.84
2017-10-14T06:19:32.504Z,94.74
2017-10-14T06:20:42.951Z,94.74
2017-10-14T06:21:53.453Z,94.65
2017-10-14T06:23:03.907Z,94.36
2017-10-14T06:24:14.381Z,94.36
2017-10-14T06:25:24.900Z,93.69
2017-10-14T06:26:35.396Z,93.79
2017-10-14T06:27:45.879Z,93.98
2017-10-14T06:28:56.008Z,94.17
2017-10-14T06:30:06.492Z,94.07
2017-10-14T06:31:16.999Z,93.98
2017-10-14T06:32:27.471Z,94.17
2017-10-14T06:33:38.187Z,94.36
2017-10-14T06:34:48.639Z,94.26
2017-10-14T06:35:58.772Z,94.26
2017-10-14T06:37:09.454Z,93.69
2017-10-14T06:38:20.024Z,93.79
2017-10-14T06:39:30.168Z,93.69
2017-10-14T06:40:40.300Z,93.74
2017-10-14T06:41:51.071Z,93.83
2017-10-14T06:43:01.788Z,93.74
2017-10-14T06:44:12.267Z,93.74
2017-10-14T06:45:22.315Z,93.83
2017-10-14T06:46:32.790Z,93.93
2017-10-14T06:47:43.238Z,93.74
2017-10-14T06:48:53.715Z,93.74
2017-10-14T06:50:04.195Z,93.83
2017-10-14T06:51:14.696Z,93.16
2017-10-14T06:52:25.171Z,93.16
2017-10-14T06:53:35.869Z,93.54
2017-10-14T06:54:46.315Z,93.26
2017-10-14T06:55:56.820Z,93.35
2017-10-14T06:57:07.535Z,93.07
2017-10-14T06:58:18.025Z,93.26
2017-10-14T06:59:28.496Z,93.54
2017-10-14T07:00:38.967Z,92.87
2017-10-14T07:01:49.422Z,92.73
2017-10-14T07:02:59.925Z,92.73
2017-10-14T07:04:10.418Z,92.82
2017-10-14T07:05:20.293Z,93.02
2017-10-14T07:06:30.764Z,92.73
2017-10-14T07:07:41.246Z,92.35
2017-10-14T07:08:51.705Z,92.44
2017-10-14T07:10:02.181Z,92.2
2017-10-14T07:11:12.269Z,91.72
2017-10-14T07:12:22.771Z,91.43
2017-10-14T07:13:32.961Z,91
2017-10-14T07:14:43.434Z,90.42
2017-10-14T07:15:53.912Z,90.13
2017-10-14T07:17:04.399Z,88.83
2017-10-14T07:18:14.889Z,88.44
2017-10-14T07:19:25.340Z,87.86
2017-10-14T07:20:35.866Z,86.75
2017-10-14T07:21:46.347Z,85.49
2017-10-14T07:22:56.827Z,83.89
2017-10-14T07:24:06.992Z,82.49
2017-10-14T07:25:17.504Z,81.22
2017-10-14T07:26:27.976Z,79.52
2017-10-14T07:27:38.577Z,77.67
2017-10-14T07:28:49.159Z,75.78
2017-10-14T07:29:59.669Z,73.68
2017-10-14T07:31:09.375Z,72.36
2017-10-14T07:32:18.861Z,70.18
2017-10-14T07:33:29.345Z,69.43
2017-10-14T07:34:39.486Z,68.3
2017-10-14T07:35:50.947Z,66.6
2017-10-14T07:37:00.836Z,66.14
2017-10-14T07:38:11.323Z,64.78
2017-10-14T07:39:21.475Z,63.56
2017-10-14T07:40:30.894Z,62.62
2017-10-14T07:41:40.402Z,61.45
2017-10-14T07:42:50.935Z,61
2017-10-14T07:44:00.791Z,60.41
2017-10-14T07:45:12.293Z,58.21
2017-10-14T07:46:22.167Z,58.04
2017-10-14T07:47:32.226Z,57.36
2017-10-14T07:48:42.333Z,57
2017-10-14T07:49:52.541Z,53.89
2017-10-14T07:51:03.108Z,53.52
2017-10-14T07:52:12.612Z,53.62
2017-10-14T07:53:23.714Z,53.33
2017-10-14T07:54:34.335Z,53.52
2017-10-14T07:55:44.546Z,53.26
2017-10-14T07:56:55.394Z,52.22
2017-10-14T07:58:05.881Z,51.04
2017-10-14T07:59:16.579Z,50.36
2017-10-14T08:00:26.389Z,49.9
2017-10-14T08:01:35.508Z,49.41
2017-10-14T08:02:47.206Z,49.24
2017-10-14T08:03:56.399Z,48.36
2017-10-14T08:05:05.539Z,48.07
2017-10-14T08:06:15.679Z,46.53
2017-10-14T08:07:25.197Z,46.24
2017-10-14T08:08:36.043Z,45.26
2017-10-14T08:09:44.788Z,45.85
2017-10-14T08:10:55.645Z,45.97
2017-10-14T08:12:07.387Z,44.8
2017-10-14T08:13:19.657Z,44.14
2017-10-14T08:14:31.486Z,43.85
2017-10-14T08:15:40.917Z,42.77
2017-10-14T08:16:51.349Z,42.6
2017-10-14T08:18:00.733Z,42.87
2017-10-14T08:19:11.199Z,42.69
2017-10-14T08:20:21.680Z,42.69
2017-10-14T08:21:33.423Z,42.4
2017-10-14T08:22:43.797Z,42.3
2017-10-14T08:23:54.287Z,41.93
2017-10-14T08:25:04.763Z,41.74
2017-10-14T08:26:15.355Z,41.15
2017-10-14T08:27:24.755Z,41.46
2017-10-14T08:28:35.255Z,40.39
2017-10-14T08:29:46.396Z,40.48
2017-10-14T08:30:56.880Z,40.88
2017-10-14T08:32:06.420Z,40.5
2017-10-14T08:33:16.904Z,40.48
2017-10-14T08:34:27.401Z,41.91
2017-10-14T08:35:37.792Z,41.89
2017-10-14T08:36:47.964Z,42.9
2017-10-14T08:37:58.344Z,43.54
2017-10-14T08:39:07.432Z,45.35
2017-10-14T08:40:16.848Z,46.67
2017-10-14T08:41:26.821Z,48.08
2017-10-14T08:42:35.588Z,49.39
2017-10-14T08:43:46.102Z,50.92
2017-10-14T08:44:55.621Z,51.84
2017-10-14T08:46:06.476Z,53.63
2017-10-14T08:47:15.578Z,54.66
2017-10-14T08:48:26.039Z,55.7
2017-10-14T08:49:37.475Z,56.83
2017-10-14T08:50:47.010Z,57.29
2017-10-14T08:51:57.816Z,58.22
2017-10-14T08:53:07.229Z,58.97
2017-10-14T08:54:16.654Z,60.13
2017-10-14T08:55:25.505Z,61.93
2017-10-14T08:56:35.887Z,61.93
2017-10-14T08:57:45.755Z,62.38
2017-10-14T08:58:54.864Z,63.06
2017-10-14T09:00:04.021Z,63.7
2017-10-14T09:01:14.185Z,64.08
2017-10-14T09:02:25.396Z,64.28
2017-10-14T09:03:34.916Z,64.56
2017-10-14T09:04:43.989Z,65.24
2017-10-14T09:05:55.495Z,64.92
2017-10-14T09:07:05.637Z,65.5
2017-10-14T09:08:15.802Z,65.98
2017-10-14T09:09:26.913Z,66.17
2017-10-14T09:10:37.861Z,66.46
2017-10-14T09:11:47.909Z,66.17
2017-10-14T09:12:57.659Z,66.36
2017-10-14T09:14:09.826Z,66.88
2017-10-14T09:15:20.548Z,66.39
2017-10-14T09:16:30.133Z,65.72
2017-10-14T09:17:39.220Z,65.85
2017-10-14T09:18:51.022Z,65.66
2017-10-14T09:20:00.111Z,65.01
2017-10-14T09:21:09.246Z,64.79
2017-10-14T09:22:20.710Z,63.92
2017-10-14T09:23:32.748Z,62.89
2017-10-14T09:24:42.648Z,62.98
2017-10-14T09:25:53.861Z,61.73
2017-10-14T09:27:04.584Z,61.08
2017-10-14T09:28:15.424Z,60.82
2017-10-14T09:29:24.674Z,59.53
2017-10-14T09:30:36.434Z,58.3
2017-10-14T09:31:45.264Z,57.55
2017-10-14T09:32:56.774Z,55.47
2017-10-14T09:34:06.366Z,54.63
2017-10-14T09:35:15.822Z,54.05
2017-10-14T09:36:26.631Z,52.64
2017-10-14T09:37:36.161Z,53.35
2017-10-14T09:38:45.257Z,49.19
2017-10-14T09:39:55.790Z,49.71
2017-10-14T09:41:04.895Z,50.19
2017-10-14T09:42:15.716Z,49.54
2017-10-14T09:43:26.212Z,48.49
2017-10-14T09:44:35.538Z,49.29
2017-10-14T09:45:44.496Z,46.93
2017-10-14T09:46:54.396Z,46.83
2017-10-14T09:48:04.460Z,47.42
2017-10-14T09:49:13.878Z,46.95
2017-10-14T09:50:24.721Z,46.37
2017-10-14T09:51:36.876Z,46.3
2017-10-14T09:52:47.720Z,45.32
2017-10-14T09:53:58.660Z,45.03
2017-10-14T09:55:09.855Z,43.95
2017-10-14T09:56:22.024Z,44.46
2017-10-14T09:57:32.221Z,43.37
2017-10-14T09:59:58.583Z,42.59
2017-10-14T10:01:10.773Z,42.59
2017-10-14T10:02:22.817Z,43.47
2017-10-14T10:03:34.512Z,43.85
2017-10-14T10:04:44.470Z,42.98
2017-10-14T10:05:56.623Z,42.3
2017-10-14T10:07:08.815Z,43.59
2017-10-14T10:08:20.200Z,43.32
2017-10-14T10:09:29.722Z,41.85
2017-10-14T10:10:38.945Z,41.66
2017-10-14T10:11:49.460Z,42.34
2017-10-14T10:12:58.933Z,41.46
2017-10-14T10:14:10.401Z,41.46
2017-10-14T10:15:20.564Z,41.46
2017-10-14T10:16:30.239Z,42.83
2017-10-14T10:17:39.090Z,42.51
2017-10-14T10:18:48.541Z,43.37
2017-10-14T10:19:59.069Z,43.54
2017-10-14T10:21:08.506Z,44.01
2017-10-14T10:22:18.402Z,44.96
2017-10-14T10:23:29.309Z,45.42
2017-10-14T10:24:39.464Z,45.62
2017-10-14T10:25:51.665Z,45.72
2017-10-14T10:27:01.868Z,45.84
2017-10-14T10:28:11.705Z,44.86
2017-10-14T10:29:20.830Z,45.06
2017-10-14T10:30:30.724Z,44.96
2017-10-14T10:31:39.831Z,45.25
2017-10-14T10:32:50.364Z,45.54
2017-10-14T10:34:03.780Z,46.5
2017-10-14T10:35:12.891Z,46.57
2017-10-14T10:36:24.362Z,47.03
2017-10-14T10:37:34.445Z,47.49
2017-10-14T10:38:44.821Z,47.59
2017-10-14T10:39:54.897Z,48.27
2017-10-14T10:41:05.434Z,47.91
2017-10-14T10:42:14.858Z,46.96
2017-10-14T10:43:27.954Z,46.47
2017-10-14T10:44:37.610Z,46.37
2017-10-14T10:45:47.432Z,46.01
2017-10-14T10:47:30.565Z,45.14
2017-10-14T10:48:40.206Z,45.04
2017-10-14T10:49:50.219Z,44.96
2017-10-14T10:51:00.617Z,43.62
2017-10-14T10:52:11.052Z,43.71
2017-10-14T10:53:21.861Z,43.91
2017-10-14T10:54:32.705Z,43.54
2017-10-14T10:55:42.901Z,43.25
2017-10-14T10:56:54.210Z,42.66
2017-10-14T10:58:04.094Z,42.4
2017-10-14T10:59:14.285Z,42.98
2017-10-14T11:00:23.875Z,42.61
2017-10-14T11:01:33.447Z,41.54
2017-10-14T11:02:44.599Z,41.35
2017-10-14T11:03:55.120Z,40.66
2017-10-14T11:05:04.214Z,41.46
2017-10-14T11:06:16.682Z,40.39
2017-10-14T11:07:27.096Z,39.8
2017-10-14T11:08:37.370Z,39.72
2017-10-14T11:09:47.602Z,39.62
2017-10-14T11:10:58.845Z,39.72
2017-10-14T11:12:08.683Z,40.31
2017-10-14T11:13:19.167Z,40.99
2017-10-14T11:14:28.692Z,40.89
2017-10-14T11:15:38.876Z,39.92
2017-10-14T11:16:50.176Z,40.21
2017-10-14T11:18:00.055Z,40.41
2017-10-14T11:19:09.136Z,38.67
2017-10-14T11:20:18.648Z,39.16
2017-10-14T11:21:29.500Z,39.14
2017-10-14T11:22:39.364Z,39.84
2017-10-14T11:23:50.656Z,38.87
2017-10-14T11:25:02.091Z,38.87
2017-10-14T11:26:12.102Z,38.77
2017-10-14T11:27:22.510Z,38.87
2017-10-14T11:28:33.040Z,38.67
2017-10-14T11:29:44.392Z,39.16
2017-10-14T11:30:54.024Z,39.84
2017-10-14T11:32:03.141Z,38.48
2017-10-14T11:33:13.013Z,38.57
2017-10-14T11:34:22.165Z,37.99
2017-10-14T11:35:33.401Z,38.67
2017-10-14T11:36:43.672Z,39.26
2017-10-14T11:37:54.101Z,39.72
2017-10-14T11:39:04.972Z,38.94
2017-10-14T11:40:14.619Z,39.55
2017-10-14T11:41:24.563Z,39.45
2017-10-14T11:42:35.579Z,39.16
2017-10-14T11:43:45.012Z,38.96
2017-10-14T11:44:55.889Z,38.38
2017-10-14T11:46:06.574Z,38.87
2017-10-14T11:47:15.549Z,39.16
2017-10-14T11:48:26.101Z,38.18
2017-10-14T11:49:36.253Z,38.87
2017-10-14T11:50:47.259Z,39.16
2017-10-14T11:51:58.816Z,39.75
2017-10-14T11:53:08.374Z,39.75
2017-10-14T11:54:19.245Z,40.04
2017-10-14T11:55:28.727Z,39.16
2017-10-14T11:56:38.409Z,39.75
2017-10-14T11:57:48.351Z,39.75
2017-10-14T11:58:58.461Z,38.48
2017-10-14T12:00:09.899Z,39.16
2017-10-14T12:01:20.806Z,39.36
2017-10-14T12:02:30.977Z,40.04
2017-10-14T12:03:40.869Z,39.94
2017-10-14T12:04:50.417Z,39.16
2017-10-14T12:05:59.556Z,39.84
2017-10-14T12:07:10.400Z,39.84
2017-10-14T12:08:20.587Z,40.04
2017-10-14T12:09:30.146Z,40.01
2017-10-14T12:10:39.607Z,40.21
2017-10-14T12:11:49.847Z,40.01
2017-10-14T12:12:58.949Z,40.31
2017-10-14T12:14:11.097Z,40.48
2017-10-14T12:15:21.976Z,40.39
2017-10-14T12:16:32.403Z,40.88
2017-10-14T12:17:42.271Z,40.95
2017-10-14T12:18:51.456Z,40.66
2017-10-14T12:20:02.300Z,41.35
2017-10-14T12:21:12.695Z,41.46
2017-10-14T12:22:22.892Z,41.36
2017-10-14T12:23:33.055Z,41.35
2017-10-14T12:24:43.194Z,41.93
2017-10-14T12:25:52.554Z,41.93
2017-10-14T12:27:02.610Z,41.83
2017-10-14T12:28:13.793Z,41.35
2017-10-14T12:29:24.284Z,41.05
2017-10-14T12:30:34.460Z,42.02
2017-10-14T12:31:43.260Z,41.83
2017-10-14T12:32:52.488Z,42.41
2017-10-14T12:34:01.900Z,41.93
2017-10-14T12:35:11.433Z,41.85
2017-10-14T12:37:37.525Z,41.95
2017-10-14T12:38:46.940Z,42.05
2017-10-14T12:39:57.781Z,42.05
2017-10-14T12:41:08.373Z,42.02
2017-10-14T12:42:18.106Z,42.32
2017-10-14T12:43:27.220Z,42.3
2017-10-14T12:44:36.808Z,43.25
2017-10-14T12:45:45.636Z,43.54
2017-10-14T12:46:56.520Z,43.33
2017-10-14T12:48:05.617Z,43.91
2017-10-14T12:49:16.217Z,44.69
2017-10-14T12:50:26.936Z,44.2
2017-10-14T12:51:37.684Z,44.76
2017-10-14T12:52:47.202Z,45.04
2017-10-14T12:53:55.957Z,46.01
2017-10-14T12:55:06.479Z,45.81
2017-10-14T12:56:15.926Z,46.5
2017-10-14T12:57:26.416Z,46.3
2017-10-14T12:58:35.158Z,46.69
2017-10-14T12:59:43.934Z,46.77
2017-10-14T13:00:53.543Z,46.67
2017-10-14T13:02:03.310Z,46.86
2017-10-14T13:03:13.748Z,46.86
2017-10-14T13:04:24.691Z,47.05
2017-10-14T13:05:35.227Z,47.05
2017-10-14T13:06:44.439Z,47.15
2017-10-14T13:07:55.308Z,47.44
2017-10-14T13:09:05.403Z,47.15
2017-10-14T13:10:14.645Z,46.96
2017-10-14T13:11:24.094Z,47.44
2017-10-14T13:12:33.223Z,47.44
2017-10-14T13:13:44.677Z,47.61
2017-10-14T13:14:54.108Z,47.71
2017-10-14T13:16:06.894Z,48.1
2017-10-14T13:17:16.431Z,48.2
2017-10-14T13:18:27.203Z,48.49
2017-10-14T13:19:37.277Z,49.24
2017-10-14T13:20:47.141Z,49.05
2017-10-14T13:21:57.981Z,49.34
2017-10-14T13:23:08.479Z,49.73
2017-10-14T13:24:17.580Z,49.8
2017-10-14T13:25:26.524Z,50.38
2017-10-14T13:26:36.680Z,50.56
2017-10-14T13:27:47.201Z,51.33
2017-10-14T13:28:56.304Z,51.79
2017-10-14T13:30:05.875Z,52.18
2017-10-14T13:31:17.182Z,52.37
2017-10-14T13:32:26.627Z,52.64
2017-10-14T13:33:37.137Z,52.54
2017-10-14T13:34:47.955Z,52.73
2017-10-14T13:35:58.366Z,53.41
2017-10-14T13:37:07.487Z,53.02
2017-10-14T13:38:17.554Z,53.31
2017-10-14T13:39:30.247Z,53.22
2017-10-14T13:40:40.196Z,53.31
2017-10-14T13:41:50.359Z,53.22
2017-10-14T13:43:00.860Z,53.29
2017-10-14T13:44:10.929Z,53.49
2017-10-14T13:45:21.784Z,53.97
2017-10-14T13:46:31.653Z,53.77
2017-10-14T13:47:42.054Z,54.16
2017-10-14T13:48:52.165Z,54.74
2017-10-14T13:50:02.662Z,54.64
2017-10-14T13:51:11.440Z,54.74
2017-10-14T13:52:20.981Z,54.91
2017-10-14T13:53:30.417Z,54.43
2017-10-14T13:54:39.203Z,55
2017-10-14T13:55:48.837Z,54.91
2017-10-14T13:56:59.222Z,54.81
2017-10-14T13:58:09.764Z,55.3
2017-10-14T13:59:21.696Z,55.58
2017-10-14T14:00:33.895Z,55.58
2017-10-14T14:01:42.993Z,55.36
2017-10-14T14:02:53.501Z,55.17
2017-10-14T14:04:03.369Z,55.85
2017-10-14T14:05:12.579Z,55.76
2017-10-14T14:06:24.371Z,55.76
2017-10-14T14:07:33.612Z,55.85
2017-10-14T14:08:43.120Z,56.24
2017-10-14T14:09:53.613Z,56.72
2017-10-14T14:11:02.766Z,56.72
2017-10-14T14:12:13.266Z,56.72
2017-10-14T14:13:22.414Z,56.62
2017-10-14T14:14:32.007Z,56.5
2017-10-14T14:15:41.519Z,56.88
2017-10-14T14:16:52.036Z,56.98
2017-10-14T14:18:02.454Z,56.88
2017-10-14T14:19:12.980Z,57.18
2017-10-14T14:20:24.512Z,56.88
2017-10-14T14:21:34.913Z,56.79
2017-10-14T14:22:46.737Z,57.46
2017-10-14T14:23:56.287Z,57.37
2017-10-14T14:25:05.061Z,57.76
2017-10-14T14:26:15.325Z,57.86
2017-10-14T14:27:24.228Z,57.86
2017-10-14T14:28:34.076Z,57.63
2017-10-14T14:29:44.533Z,57.63
2017-10-14T14:30:53.611Z,57.73
2017-10-14T14:32:02.782Z,57.82
2017-10-14T14:33:12.554Z,57.63
2017-10-14T14:34:21.996Z,57.54
2017-10-14T14:35:32.801Z,57.82
2017-10-14T14:36:43.308Z,58.4
2017-10-14T14:37:54.804Z,58.12
2017-10-14T14:39:04.233Z,58.6
2017-10-14T14:40:13.664Z,58.6
2017-10-14T14:41:23.190Z,58.98
2017-10-14T14:42:32.850Z,58.76
2017-10-14T14:43:41.941Z,59.05
2017-10-14T14:44:51.023Z,58.86
2017-10-14T14:46:00.330Z,58.95
2017-10-14T14:47:09.742Z,59.15
2017-10-14T14:48:20.331Z,59.15
2017-10-14T14:49:30.321Z,58.95
2017-10-14T14:50:39.427Z,58.86
2017-10-14T14:51:49.482Z,59.34
2017-10-14T14:52:59.866Z,59.63
2017-10-14T14:54:09.770Z,59.53
2017-10-14T14:55:20.317Z,59.53
2017-10-14T14:56:31.132Z,59.73
2017-10-14T14:57:40.202Z,59.6
2017-10-14T14:58:50.766Z,59.8
2017-10-14T15:00:02.239Z,59.7
2017-10-14T15:01:11.011Z,59.8
2017-10-14T15:02:21.832Z,60.18
2017-10-14T15:03:31.718Z,60.18
2017-10-14T15:04:43.090Z,60.47
2017-10-14T15:05:53.474Z,60.28
2017-10-14T15:07:02.639Z,60.57
2017-10-14T15:08:12.173Z,61.02
2017-10-14T15:09:22.283Z,60.93
2017-10-14T15:10:31.437Z,60.93
2017-10-14T15:11:40.581Z,61.02